Time;durP1;ratioP1;P1;durP2;ratioP2;P2;SDS_P1;SDS_P2;PMS_P1;PMS_P2;Temp;Humidity;BMP_temperature;BMP_pressure;BME280_temperature;BME280_humidity;BME280_pressure;Samples;Min_cycle;Max_cycle;Signal;HPM_P1;HPM_P2
2021/04/18 00:01:49;;;;;;;5.95;5.30;;;;;;;15.01;57.11;99953.41;1786135;77;21288;-72
2021/04/18 00:04:17;;;;;;;5.95;5.33;;;;;;;15.01;57.14;99954.74;1772513;79;21202;-71
2021/04/18 00:06:44;;;;;;;5.75;5.20;;;;;;;15.00;57.14;99948.58;1794287;77;21661;-71
2021/04/18 00:09:11;;;;;;;6.58;5.42;;;;;;;14.99;57.11;99949.61;1787519;79;21141;-71
2021/04/18 00:11:40;;;;;;;5.80;5.20;;;;;;;15.00;57.12;99949.09;1780208;79;21158;-70
2021/04/18 00:14:08;;;;;;;6.60;5.50;;;;;;;14.99;57.12;99949.61;1777274;79;21365;-70
2021/04/18 00:16:36;;;;;;;6.10;5.50;;;;;;;14.99;57.11;99941.58;1785654;79;21119;-70
2021/04/18 00:19:04;;;;;;;6.00;5.35;;;;;;;14.98;57.10;99943.11;1774147;79;21170;-72
2021/04/18 00:21:32;;;;;;;6.12;5.53;;;;;;;14.97;57.10;99947.64;1773424;79;21202;-72
2021/04/18 00:24:00;;;;;;;6.05;5.00;;;;;;;14.97;57.08;99940.95;1772259;79;21134;-72
2021/04/18 00:26:27;;;;;;;6.28;5.67;;;;;;;14.97;57.08;99942.77;1738193;80;21197;-71
2021/04/18 00:28:56;;;;;;;5.20;4.70;;;;;;;14.98;57.10;99944.44;1728603;81;21631;-71
2021/04/18 00:31:24;;;;;;;5.28;4.78;;;;;;;14.96;57.08;99940.61;1737592;81;21170;-71
2021/04/18 00:33:51;;;;;;;5.72;5.15;;;;;;;14.96;57.07;99942.47;1730565;81;21615;-70
2021/04/18 00:36:20;;;;;;;6.95;5.42;;;;;;;14.96;57.10;99935.78;1734785;81;21121;-71
2021/04/18 00:38:47;;;;;;;6.70;5.72;;;;;;;14.94;57.09;99936.79;1734849;79;21255;-72
2021/04/18 00:41:15;;;;;;;5.75;5.25;;;;;;;14.96;57.07;99943.30;1740206;81;21493;-71
2021/04/18 00:43:45;;;;;;;6.35;5.75;;;;;;;14.96;57.07;99938.45;1780140;79;21138;-73
2021/04/18 00:46:12;;;;;;;5.80;5.20;;;;;;;14.93;57.08;99935.64;1770434;79;21119;-75
2021/04/18 00:48:44;;;;;;;5.47;4.75;;;;;;;14.94;57.08;99934.63;1766667;79;21143;-73
2021/04/18 00:51:12;;;;;;;5.62;5.10;;;;;;;14.92;57.08;99929.47;1771301;79;21191;-74
2021/04/18 00:53:40;;;;;;;6.58;5.12;;;;;;;14.92;57.08;99927.31;1781169;78;21130;-73
2021/04/18 00:56:10;;;;;;;5.37;4.67;;;;;;;14.91;57.09;99927.83;1785746;79;21158;-73
2021/04/18 00:58:40;;;;;;;7.00;5.50;;;;;;;14.92;57.07;99928.65;1773639;77;22179;-72
2021/04/18 01:01:08;;;;;;;5.20;4.60;;;;;;;14.91;57.09;99922.48;1764863;79;21159;-74
2021/04/18 01:03:38;;;;;;;5.35;4.85;;;;;;;14.90;57.09;99924.00;1767628;77;21209;-71
2021/04/18 01:06:07;;;;;;;5.35;4.85;;;;;;;14.90;57.06;99919.98;1779601;79;21147;-72
2021/04/18 01:08:36;;;;;;;5.30;4.72;;;;;;;14.90;57.08;99917.31;1781018;77;21180;-73
2021/04/18 01:11:06;;;;;;;6.15;5.55;;;;;;;14.90;57.08;99921.33;1780611;79;21110;-72
2021/04/18 01:13:34;;;;;;;5.65;5.12;;;;;;;14.89;57.08;99919.17;1768704;77;21179;-71
2021/04/18 01:16:03;;;;;;;5.58;5.08;;;;;;;14.89;57.09;99910.30;1772709;77;21336;-71
2021/04/18 01:18:31;;;;;;;4.72;4.20;;;;;;;14.88;57.11;99907.31;1769225;79;21658;-71
2021/04/18 01:21:09;;;;;;;5.03;4.58;;;;;;;14.88;57.09;99908.66;1756706;79;21590;-71
2021/04/18 01:24:07;;;;;;;4.87;4.47;;;;;;;14.92;57.13;99907.25;1825525;77;29474;-76
2021/04/18 01:26:39;;;;;;;4.50;4.10;;;;;;;14.86;57.11;99907.50;1764908;79;21784;-75
2021/04/18 01:29:07;;;;;;;5.25;4.70;;;;;;;14.85;57.12;99903.16;1811833;78;22365;-73
2021/04/18 01:31:35;;;;;;;5.12;4.62;;;;;;;14.85;57.13;99900.48;1814051;78;21618;-73
2021/04/18 01:34:05;;;;;;;4.87;4.37;;;;;;;14.85;57.16;99894.31;1826011;78;21159;-72
2021/04/18 01:36:33;;;;;;;4.83;4.33;;;;;;;14.85;57.14;99893.80;1796183;78;21127;-76
2021/04/18 01:39:01;;;;;;;5.12;4.62;;;;;;;14.85;57.14;99883.62;1820482;78;21127;-75
2021/04/18 01:41:28;;;;;;;4.97;4.47;;;;;;;14.85;57.12;99891.64;1793771;78;23678;-72
2021/04/18 01:43:57;;;;;;;4.70;4.20;;;;;;;14.84;57.14;99889.48;1817339;78;21101;-72
2021/04/18 01:46:24;;;;;;;5.37;4.30;;;;;;;14.84;57.10;99893.50;1815173;78;21087;-73
2021/04/18 01:48:55;;;;;;;4.67;4.17;;;;;;;14.84;57.09;99888.67;1787231;79;21141;-72
2021/04/18 01:51:25;;;;;;;4.28;3.87;;;;;;;14.84;57.09;99888.67;1790805;78;21133;-74
2021/04/18 01:53:53;;;;;;;4.90;4.33;;;;;;;14.84;57.10;99884.14;1802967;78;21377;-74
2021/04/18 01:56:21;;;;;;;4.78;4.35;;;;;;;14.84;57.09;99884.14;1794108;78;21179;-75
2021/04/18 01:58:50;;;;;;;4.90;4.47;;;;;;;14.84;57.07;99881.98;1810209;78;21113;-72
2021/04/18 02:01:29;;;;;;;4.53;4.12;;;;;;;14.83;57.06;99877.12;1798920;78;21164;-71
2021/04/18 02:04:00;;;;;;;4.35;3.95;;;;;;;14.82;57.07;99876.00;1817756;78;21149;-71
2021/04/18 02:06:29;;;;;;;4.58;4.17;;;;;;;14.81;57.05;99877.83;1795063;78;21362;-71
2021/04/18 02:09:06;;;;;;;5.40;4.62;;;;;;;14.85;57.07;99872.41;1748595;80;28267;-71
2021/04/18 02:11:38;;;;;;;4.28;3.87;;;;;;;14.82;57.04;99873.33;1771860;79;21147;-72
2021/04/18 02:14:08;;;;;;;4.17;3.80;;;;;;;14.81;57.03;99875.14;1777322;77;21574;-71
2021/04/18 02:16:45;;;;;;;4.33;3.85;;;;;;;14.85;57.07;99866.23;1759922;80;28227;-72
2021/04/18 02:19:35;;;;;;;4.75;4.12;;;;;;;14.80;57.07;99863.33;1736639;82;21183;-72
2021/04/18 02:22:05;;;;;;;4.50;4.10;;;;;;;14.79;57.07;99865.16;1751634;81;21378;-71
2021/04/18 02:24:34;;;;;;;5.17;4.33;;;;;;;14.78;57.11;99860.84;1745733;81;21209;-72
2021/04/18 02:27:04;;;;;;;4.40;4.00;;;;;;;14.79;57.07;99864.34;1750287;81;21608;-71
2021/04/18 02:29:33;;;;;;;4.45;4.05;;;;;;;14.79;57.07;99860.33;1756412;81;21153;-70
2021/04/18 02:32:05;;;;;;;4.12;3.72;;;;;;;14.78;57.10;99859.50;1755813;81;21161;-70
2021/04/18 02:34:36;;;;;;;4.67;4.27;;;;;;;14.78;57.07;99850.66;1753957;81;21364;-70
2021/04/18 02:37:03;;;;;;;4.58;3.90;;;;;;;14.78;57.08;99852.00;1755875;81;21150;-71
2021/04/18 02:39:31;;;;;;;4.87;4.40;;;;;;;14.77;57.06;99857.84;1755625;81;21157;-70
2021/04/18 02:41:59;;;;;;;4.12;3.80;;;;;;;14.77;57.08;99842.31;1755871;81;21180;-70
2021/04/18 02:44:26;;;;;;;4.35;3.95;;;;;;;14.75;57.08;99839.30;1755810;81;21148;-70
2021/04/18 02:46:54;;;;;;;4.20;3.80;;;;;;;14.77;57.07;99836.96;1754789;81;21350;-71
2021/04/18 02:49:22;;;;;;;4.37;3.98;;;;;;;14.77;57.05;99835.63;1755952;81;21141;-71
2021/04/18 02:51:50;;;;;;;4.05;3.65;;;;;;;14.77;57.06;99836.96;1751605;81;21166;-69
2021/04/18 02:54:19;;;;;;;4.65;4.25;;;;;;;14.77;57.06;99842.31;1754633;81;21628;-70
2021/04/18 02:56:48;;;;;;;4.90;4.40;;;;;;;14.77;57.05;99838.30;1734827;82;21159;-70
2021/04/18 02:59:17;;;;;;;4.47;4.08;;;;;;;14.75;57.03;99829.95;1729157;82;21268;-71
2021/04/18 03:01:45;;;;;;;4.30;3.90;;;;;;;14.75;57.02;99826.45;1722989;82;21254;-72
2021/04/18 03:04:13;;;;;;;4.50;3.98;;;;;;;14.75;57.02;99828.61;1723666;82;21148;-73
2021/04/18 03:06:41;;;;;;;4.03;3.62;;;;;;;14.75;57.02;99829.12;1714125;82;21176;-72
2021/04/18 03:09:10;;;;;;;4.47;3.87;;;;;;;14.75;57.01;99826.45;1727043;82;21169;-71
2021/04/18 03:11:41;;;;;;;4.50;4.10;;;;;;;14.75;57.00;99820.58;1738484;82;21180;-71
2021/04/18 03:14:32;;;;;;;4.17;3.75;;;;;;;14.78;57.05;99817.23;1828471;76;28124;-72
2021/04/18 03:17:00;;;;;;;3.83;3.52;;;;;;;14.73;57.02;99818.62;1796610;78;21152;-73
2021/04/18 03:19:30;;;;;;;4.47;3.75;;;;;;;14.73;57.04;99817.28;1810544;78;22009;-73
2021/04/18 03:21:59;;;;;;;4.40;4.00;;;;;;;14.73;57.04;99815.94;1838272;75;21174;-72
2021/04/18 03:24:29;;;;;;;3.75;3.45;;;;;;;14.73;57.07;99823.97;1837964;75;22153;-72
2021/04/18 03:26:57;;;;;;;5.35;4.03;;;;;;;14.72;57.07;99825.00;1797306;78;21149;-73
2021/04/18 03:29:27;;;;;;;4.20;3.80;;;;;;;14.73;57.08;99825.82;1847750;77;21124;-72
2021/04/18 03:31:55;;;;;;;4.10;3.70;;;;;;;14.72;57.07;99818.31;1855743;77;22223;-69
2021/04/18 03:34:23;;;;;;;4.03;3.70;;;;;;;14.73;57.05;99816.45;1849376;77;21042;-70
2021/04/18 03:36:51;;;;;;;3.80;3.37;;;;;;;14.73;57.09;99815.12;1819036;77;21128;-70
2021/04/18 03:39:21;;;;;;;4.40;4.00;;;;;;;14.72;57.08;99812.97;1824320;77;21837;-70
2021/04/18 03:41:50;;;;;;;3.92;3.58;;;;;;;14.72;57.10;99814.30;1825028;77;21160;-72
2021/04/18 03:44:20;;;;;;;4.10;3.70;;;;;;;14.71;57.10;99820.66;1831704;77;21363;-71
2021/04/18 03:46:48;;;;;;;4.03;3.70;;;;;;;14.72;57.10;99816.98;1831955;77;21128;-72
2021/04/18 03:49:18;;;;;;;4.10;3.70;;;;;;;14.72;57.10;99816.98;1832219;76;21163;-71
2021/04/18 03:51:59;;;;;;;3.87;3.47;;;;;;;14.72;57.12;99816.16;1829161;77;21784;-72
2021/04/18 03:54:29;;;;;;;4.03;3.40;;;;;;;14.71;57.11;99817.98;1832213;77;21126;-73
2021/04/18 03:56:56;;;;;;;3.92;3.52;;;;;;;14.71;57.11;99824.67;1837231;77;21328;-72
2021/04/18 03:59:25;;;;;;;3.65;3.35;;;;;;;14.72;57.11;99821.51;1849279;77;21195;-71
2021/04/18 04:01:53;;;;;;;3.92;3.08;;;;;;;14.72;57.12;99829.02;1846200;77;21161;-72
2021/04/18 04:04:21;;;;;;;3.42;3.12;;;;;;;14.72;57.12;99819.66;1783511;77;21126;-71
2021/04/18 04:06:50;;;;;;;4.55;3.80;;;;;;;14.72;57.12;99820.98;1843404;77;21116;-74
2021/04/18 04:09:19;;;;;;;3.62;3.33;;;;;;;14.73;57.14;99819.13;1848321;77;21257;-74
2021/04/18 04:11:50;;;;;;;3.40;3.10;;;;;;;14.72;57.13;99825.00;1847192;76;21155;-73
2021/04/18 04:14:19;;;;;;;3.67;3.37;;;;;;;14.72;57.12;99823.66;1837509;77;21616;-73
2021/04/18 04:16:51;;;;;;;3.98;3.40;;;;;;;14.72;57.15;99825.00;1847039;77;21149;-73
2021/04/18 04:19:21;;;;;;;4.30;3.35;;;;;;;14.72;57.17;99825.00;1832253;77;21124;-72
2021/04/18 04:22:08;;;;;;;4.03;3.50;;;;;;;14.71;57.16;99816.65;1845529;77;21353;-72
2021/04/18 04:24:54;;;;;;;3.47;3.17;;;;;;;14.71;57.17;99821.99;1833218;77;21188;-73
2021/04/18 04:27:21;;;;;;;3.27;2.98;;;;;;;14.70;57.19;99806.17;1846978;77;21141;-72
2021/04/18 04:29:50;;;;;;;3.77;3.37;;;;;;;14.70;57.23;99816.34;1845249;77;21144;-73
2021/04/18 04:32:18;;;;;;;4.28;3.75;;;;;;;14.70;57.20;99808.84;1835914;77;21176;-72
2021/04/18 04:34:46;;;;;;;3.25;2.95;;;;;;;14.71;57.25;99812.64;1838217;77;21288;-72
2021/04/18 04:37:14;;;;;;;3.33;2.98;;;;;;;14.71;57.22;99805.95;1852584;77;21164;-72
2021/04/18 04:39:41;;;;;;;3.40;3.10;;;;;;;14.71;57.20;99798.45;1843083;77;21160;-72
2021/04/18 04:42:09;;;;;;;3.08;2.77;;;;;;;14.71;57.23;99801.94;1843400;77;21161;-73
2021/04/18 04:44:37;;;;;;;3.65;3.05;;;;;;;14.72;57.18;99798.27;1838784;77;21195;-73
2021/04/18 04:47:07;;;;;;;3.65;3.35;;;;;;;14.73;57.21;99794.55;1845905;77;21392;-73
2021/04/18 04:49:34;;;;;;;3.20;2.72;;;;;;;14.73;57.17;99799.90;1845863;77;21117;-75
2021/04/18 04:52:03;;;;;;;3.25;2.95;;;;;;;14.74;57.18;99788.19;1848668;77;21117;-75
2021/04/18 04:54:30;;;;;;;3.20;2.90;;;;;;;14.74;57.15;99788.19;1825645;77;21517;-74
2021/04/18 04:57:00;;;;;;;3.20;2.90;;;;;;;14.75;57.17;99784.48;1854259;77;21172;-74
2021/04/18 04:59:27;;;;;;;3.33;3.02;;;;;;;14.77;57.14;99783.48;1850024;77;22010;-74
2021/04/18 05:01:55;;;;;;;2.60;2.40;;;;;;;14.78;57.14;99785.14;1834905;77;21173;-74
2021/04/18 05:04:22;;;;;;;3.35;2.98;;;;;;;14.78;57.12;99783.29;1834117;77;21588;-74
2021/04/18 05:06:50;;;;;;;3.25;2.55;;;;;;;14.79;57.11;99782.77;1844118;77;21196;-73
2021/04/18 05:09:17;;;;;;;3.33;2.77;;;;;;;14.80;57.11;99781.77;1844890;77;21593;-75
2021/04/18 05:11:46;;;;;;;3.25;2.95;;;;;;;14.81;57.08;99776.72;1847025;77;21455;-74
2021/04/18 05:14:13;;;;;;;3.05;2.75;;;;;;;14.82;57.09;99767.69;1816118;77;21601;-74
2021/04/18 05:16:42;;;;;;;3.30;3.00;;;;;;;14.84;57.06;99772.33;1801258;78;21102;-74
2021/04/18 05:19:09;;;;;;;3.00;2.62;;;;;;;14.85;57.01;99774.78;1794015;79;21147;-70
2021/04/18 05:21:37;;;;;;;3.65;3.05;;;;;;;14.86;56.99;99777.78;1791048;78;21163;-71
2021/04/18 05:24:06;;;;;;;3.25;2.90;;;;;;;14.87;57.00;99771.92;1796325;79;21518;-73
2021/04/18 05:26:34;;;;;;;2.67;2.47;;;;;;;14.88;56.97;99770.91;1792770;79;21139;-72
2021/04/18 05:29:01;;;;;;;3.35;3.05;;;;;;;14.90;56.96;99775.55;1797993;79;21143;-74
2021/04/18 05:31:31;;;;;;;4.30;2.50;;;;;;;14.91;56.93;99767.83;1802954;79;21155;-75
2021/04/18 05:33:59;;;;;;;2.52;2.33;;;;;;;14.91;56.93;99766.48;1784952;79;21139;-74
2021/04/18 05:36:26;;;;;;;3.10;2.80;;;;;;;14.92;56.92;99761.47;1790704;79;21366;-71
2021/04/18 05:38:53;;;;;;;2.72;2.52;;;;;;;14.93;56.91;99757.75;1794525;79;21155;-71
2021/04/18 05:41:20;;;;;;;2.60;2.40;;;;;;;14.96;56.87;99767.26;1781066;79;21096;-72
2021/04/18 05:43:49;;;;;;;3.10;2.80;;;;;;;14.94;56.89;99757.56;1794111;79;21531;-71
2021/04/18 05:46:17;;;;;;;2.87;2.67;;;;;;;14.97;56.85;99767.55;1777909;79;21123;-71
2021/04/18 05:48:45;;;;;;;3.12;2.77;;;;;;;14.99;56.87;99764.17;1799910;79;22128;-71
2021/04/18 05:51:12;;;;;;;2.90;2.70;;;;;;;14.96;56.86;99762.73;1802431;79;21555;-70
2021/04/18 05:53:39;;;;;;;3.30;3.00;;;;;;;15.01;56.82;99763.47;1797711;79;21622;-71
2021/04/18 05:56:07;;;;;;;3.25;2.95;;;;;;;15.01;56.80;99758.11;1795469;79;21611;-72
2021/04/18 05:58:35;;;;;;;2.77;2.58;;;;;;;15.02;56.78;99761.12;1789010;79;21150;-71
2021/04/18 06:01:02;;;;;;;3.20;2.77;;;;;;;15.02;56.78;99757.11;1799384;79;22390;-73
2021/04/18 06:03:30;;;;;;;3.12;2.83;;;;;;;15.03;56.80;99759.59;1803033;79;21535;-73
2021/04/18 06:05:58;;;;;;;3.30;3.00;;;;;;;15.05;56.78;99764.75;1791289;78;21103;-73
2021/04/18 06:08:26;;;;;;;2.67;2.47;;;;;;;15.05;56.71;99754.05;1795824;79;21155;-73
2021/04/18 06:10:54;;;;;;;2.80;2.60;;;;;;;15.06;56.71;99744.98;1791459;78;21131;-73
2021/04/18 06:13:22;;;;;;;2.85;2.55;;;;;;;15.06;56.72;99740.45;1805796;77;21377;-72
2021/04/18 06:15:53;;;;;;;3.00;2.70;;;;;;;15.07;56.74;99740.78;1845816;75;21170;-73
2021/04/18 06:18:20;;;;;;;2.75;2.40;;;;;;;15.08;56.70;99739.73;1853367;75;21090;-72
2021/04/18 06:20:48;;;;;;;2.85;2.55;;;;;;;15.11;56.74;99744.70;1837862;77;21134;-71
2021/04/18 06:23:15;;;;;;;2.98;2.55;;;;;;;15.13;56.70;99741.33;1844137;77;21139;-73
2021/04/18 06:25:42;;;;;;;2.98;2.47;;;;;;;15.15;56.68;99733.10;1835466;77;21579;-71
2021/04/18 06:28:09;;;;;;;3.22;2.92;;;;;;;15.18;56.68;99739.38;1848577;75;21139;-72
2021/04/18 06:30:36;;;;;;;3.05;2.75;;;;;;;15.21;56.64;99731.48;1856557;75;21083;-72
2021/04/18 06:33:04;;;;;;;3.33;3.02;;;;;;;15.22;56.64;99731.78;1806812;78;21631;-72
2021/04/18 06:35:32;;;;;;;3.15;2.85;;;;;;;15.24;56.59;99736.42;1816385;78;21156;-72
2021/04/18 06:38:00;;;;;;;3.30;3.00;;;;;;;15.24;56.59;99734.59;1828742;77;21381;-74
2021/04/18 06:40:27;;;;;;;3.42;3.02;;;;;;;15.26;56.55;99741.06;1832350;77;21152;-69
2021/04/18 06:42:55;;;;;;;2.75;2.55;;;;;;;15.26;56.55;99740.58;1847369;77;21140;-71
2021/04/18 06:45:23;;;;;;;2.98;2.58;;;;;;;15.27;56.50;99742.21;1834835;77;21128;-73
2021/04/18 06:47:50;;;;;;;3.45;3.15;;;;;;;15.28;56.51;99744.39;1853260;77;21620;-72
2021/04/18 06:50:19;;;;;;;3.00;2.70;;;;;;;15.28;56.52;99736.37;1835909;77;23643;-71
2021/04/18 06:52:47;;;;;;;3.12;2.83;;;;;;;15.28;56.50;99746.55;1854187;77;22044;-72
2021/04/18 06:55:15;;;;;;;2.75;2.55;;;;;;;15.29;56.48;99744.17;1833587;77;21144;-71
2021/04/18 06:57:43;;;;;;;3.20;2.90;;;;;;;15.29;56.45;99740.16;1838711;77;21137;-73
2021/04/18 07:00:12;;;;;;;3.12;2.83;;;;;;;15.29;56.45;99747.38;1843887;77;21553;-75
2021/04/18 07:05:44;;;;;;;2.75;2.55;;;;;;;15.34;56.41;99739.58;1882140;74;28279;-73
2021/04/18 07:08:22;;;;;;;3.35;3.05;;;;;;;15.28;56.41;99741.20;1849667;77;21168;-71
2021/04/18 07:10:52;;;;;;;3.10;2.80;;;;;;;15.29;56.38;99743.36;1844749;75;21344;-72
2021/04/18 07:13:21;;;;;;;3.05;2.75;;;;;;;15.30;56.36;99738.33;1833839;75;21202;-72
2021/04/18 07:15:48;;;;;;;3.00;2.55;;;;;;;15.29;56.33;99732.65;1791217;77;21143;-72
2021/04/18 07:18:40;;;;;;;3.02;2.70;;;;;;;15.29;56.37;99736.66;1810372;77;21159;-72
2021/04/18 07:21:08;;;;;;;2.72;2.52;;;;;;;15.29;56.34;99729.45;1798371;78;21557;-72
2021/04/18 07:23:35;;;;;;;2.70;2.47;;;;;;;15.29;56.34;99739.34;1804725;78;22801;-72
2021/04/18 07:26:25;;;;;;;3.15;2.85;;;;;;;15.27;56.35;99730.69;1805299;78;21585;-73
2021/04/18 07:29:12;;;;;;;2.90;2.60;;;;;;;15.29;56.36;99732.65;1779111;78;21133;-73
2021/04/18 07:31:40;;;;;;;2.60;2.37;;;;;;;15.28;56.35;99729.67;1788127;79;21124;-72
2021/04/18 07:34:11;;;;;;;2.85;2.58;;;;;;;15.27;56.35;99728.83;1790622;79;21188;-72
2021/04/18 07:36:41;;;;;;;2.60;2.40;;;;;;;15.26;56.35;99731.70;1783824;78;21436;-71
2021/04/18 07:39:10;;;;;;;3.15;2.65;;;;;;;15.26;56.36;99733.88;1804073;78;21202;-72
2021/04/18 07:41:40;;;;;;;3.00;2.70;;;;;;;15.25;56.35;99736.23;1810089;78;21136;-73
2021/04/18 07:44:15;;;;;;;3.12;2.77;;;;;;;15.26;56.41;99732.55;1792358;78;21165;-73
2021/04/18 07:46:38;;;;;;;3.12;2.83;;;;;;;15.27;56.35;99736.86;1791006;78;21161;-72
2021/04/18 07:49:06;;;;;;;2.92;2.65;;;;;;;15.26;56.33;99731.20;1804501;77;21489;-73
2021/04/18 07:51:34;;;;;;;3.55;3.25;;;;;;;15.27;56.35;99725.33;1775624;78;21173;-72
2021/04/18 07:54:03;;;;;;;2.33;2.12;;;;;;;15.27;56.34;99727.48;1817122;78;21584;-72
2021/04/18 07:56:30;;;;;;;3.37;2.77;;;;;;;15.28;56.33;99733.17;1811571;78;21727;-73
2021/04/18 07:58:58;;;;;;;3.10;2.80;;;;;;;15.29;56.33;99728.64;1812287;78;21138;-73
2021/04/18 08:01:25;;;;;;;2.77;2.58;;;;;;;15.30;56.34;99734.31;1790401;78;22307;-74
2021/04/18 08:03:53;;;;;;;3.70;2.90;;;;;;;15.31;56.35;99738.62;1786304;78;21217;-72
2021/04/18 08:06:21;;;;;;;3.00;2.70;;;;;;;15.32;56.32;99740.30;1779773;79;21158;-73
2021/04/18 08:08:50;;;;;;;3.72;3.35;;;;;;;15.33;56.30;99740.59;1780380;79;21135;-72
2021/04/18 08:11:20;;;;;;;2.80;2.60;;;;;;;15.34;56.30;99744.94;1785942;79;21149;-71
2021/04/18 08:13:50;;;;;;;2.90;2.60;;;;;;;15.33;56.29;99744.08;1823081;76;21481;-71
2021/04/18 08:16:28;;;;;;;4.47;2.80;;;;;;;15.34;56.27;99743.59;1828529;76;21541;-72
2021/04/18 08:19:10;;;;;;;2.87;2.60;;;;;;;15.35;56.28;99751.92;1804479;79;21092;-71
2021/04/18 08:21:40;;;;;;;5.65;2.77;;;;;;;15.34;56.30;99746.27;1843292;76;21156;-71
2021/04/18 08:24:21;;;;;;;2.30;2.10;;;;;;;15.34;56.30;99744.94;1788425;79;21168;-71
2021/04/18 08:27:11;;;;;;;3.15;2.85;;;;;;;15.34;56.31;99744.94;1753469;79;21465;-70
2021/04/18 08:30:07;;;;;;;2.83;2.62;;;;;;;15.32;56.31;99741.11;1828334;76;21180;-73
2021/04/18 08:32:47;;;;;;;2.98;2.67;;;;;;;15.32;56.32;99741.63;1822063;76;21142;-72
2021/04/18 08:35:25;;;;;;;3.40;3.10;;;;;;;15.30;56.35;99741.83;1840275;76;21125;-70
2021/04/18 08:38:15;;;;;;;3.20;2.75;;;;;;;15.30;56.37;99739.67;1825073;76;21117;-73
2021/04/18 08:40:44;;;;;;;2.52;2.33;;;;;;;15.30;56.37;99737.81;1834297;76;21457;-73
2021/04/18 08:43:18;;;;;;;2.90;2.70;;;;;;;15.29;56.39;99738.82;1819241;76;21920;-72
2021/04/18 08:45:55;;;;;;;2.60;2.37;;;;;;;15.29;56.39;99732.65;1819260;76;21605;-71
2021/04/18 08:48:22;;;;;;;2.75;2.40;;;;;;;15.29;56.40;99736.14;1836754;76;21145;-72
2021/04/18 08:51:03;;;;;;;3.08;2.60;;;;;;;15.29;56.41;99729.97;1816134;76;21144;-72
2021/04/18 08:53:58;;;;;;;2.87;2.58;;;;;;;15.29;56.40;99728.11;1819115;76;21372;-71
2021/04/18 08:56:48;;;;;;;2.58;2.27;;;;;;;15.29;56.41;99724.09;1829476;76;21150;-71
2021/04/18 08:59:18;;;;;;;3.50;3.15;;;;;;;15.28;56.73;99724.33;1839448;76;21140;-73
2021/04/18 09:02:00;;;;;;;3.33;2.58;;;;;;;15.28;57.67;99727.81;1816825;76;21132;-74
2021/04/18 09:04:28;;;;;;;3.20;2.90;;;;;;;15.31;58.36;99728.73;1826259;76;21128;-72
2021/04/18 09:06:55;;;;;;;3.40;3.10;;;;;;;15.33;58.46;99731.22;1827302;77;21359;-69
2021/04/18 09:09:23;;;;;;;3.52;3.02;;;;;;;15.34;58.48;99734.23;1822384;76;21164;-72
2021/04/18 09:11:52;;;;;;;5.37;3.42;;;;;;;15.36;58.41;99730.84;1819452;76;21216;-72
2021/04/18 09:14:32;;;;;;;3.25;2.95;;;;;;;15.38;58.28;99731.98;1830293;76;21156;-72
2021/04/18 09:17:20;;;;;;;2.85;2.55;;;;;;;15.38;58.20;99728.78;1789828;79;21587;-72
2021/04/18 09:19:56;;;;;;;2.95;2.45;;;;;;;15.39;58.10;99726.41;1784609;78;21198;-73
2021/04/18 09:22:31;;;;;;;2.77;2.58;;;;;;;15.39;57.99;99729.08;1804819;79;21144;-73
2021/04/18 09:25:07;;;;;;;2.90;2.60;;;;;;;15.40;57.94;99732.61;1806065;79;21545;-72
2021/04/18 09:27:33;;;;;;;;;;;;;;;15.41;57.83;99730.22;1784369;79;21251;-71
2021/04/18 09:30:07;;;;;;;2.72;2.35;;;;;;;15.42;57.75;99728.69;1794397;79;20258;-71
2021/04/18 09:32:37;;;;;;;3.00;2.60;;;;;;;15.37;57.79;99738.34;1765909;80;21604;-71
2021/04/18 09:35:07;;;;;;;2.80;2.60;;;;;;;15.37;57.72;99736.48;1790935;79;21206;-73
2021/04/18 09:37:38;;;;;;;3.70;3.00;;;;;;;15.40;57.64;99740.11;1793969;79;21615;-71
2021/04/18 09:40:10;;;;;;;3.17;2.67;;;;;;;15.42;57.56;99736.72;1777710;79;21128;-72
2021/04/18 09:42:41;;;;;;;3.10;2.80;;;;;;;15.44;57.50;99737.34;1797796;78;21158;-73
2021/04/18 09:45:22;;;;;;;3.33;3.02;;;;;;;15.46;57.42;99739.83;1801040;79;22371;-72
2021/04/18 09:48:14;;;;;;;3.40;3.10;;;;;;;15.47;57.36;99738.30;1800959;79;21633;-72
2021/04/18 09:50:42;;;;;;;2.62;2.27;;;;;;;15.50;57.32;99750.45;1779987;79;21576;-73
2021/04/18 09:53:15;;;;;;;2.60;2.40;;;;;;;15.50;57.26;99743.23;1847140;76;21157;-72
2021/04/18 09:56:00;;;;;;;2.92;2.65;;;;;;;15.52;57.20;99751.89;1858133;76;21113;-71
2021/04/18 09:58:37;;;;;;;2.92;2.47;;;;;;;15.53;57.17;99749.54;1847432;77;21364;-72
2021/04/18 10:01:25;;;;;;;3.40;3.10;;;;;;;15.54;57.11;99750.36;1797579;78;21938;-71
2021/04/18 10:03:53;;;;;;;3.15;2.85;;;;;;;15.53;57.10;99748.20;1777946;78;21185;-71
2021/04/18 10:06:22;;;;;;;3.40;2.67;;;;;;;15.54;57.07;99753.85;1737570;80;21196;-70
2021/04/18 10:08:56;;;;;;;2.95;2.65;;;;;;;15.56;57.03;99752.84;1788558;78;21612;-71
2021/04/18 10:11:24;;;;;;;4.08;3.67;;;;;;;15.56;56.99;99752.84;1812739;79;21355;-70
2021/04/18 10:13:55;;;;;;;6.50;5.83;;;;;;;15.57;58.13;99758.00;1845843;76;21155;-71
2021/04/18 10:16:40;;;;;;;15.40;9.80;;;;;;;15.62;58.71;99754.19;1838641;76;21170;-72
2021/04/18 10:19:21;;;;;;;10.93;9.80;;;;;;;15.66;59.91;99757.30;1829851;77;21140;-69
2021/04/18 10:22:08;;;;;;;10.90;9.45;;;;;;;15.69;60.65;99764.94;1831485;76;21083;-71
2021/04/18 10:24:45;;;;;;;9.83;8.83;;;;;;;15.70;60.84;99767.42;1843944;76;22443;-71
2021/04/18 10:27:17;;;;;;;10.05;9.05;;;;;;;15.73;60.76;99771.05;1840247;76;21139;-72
2021/04/18 10:29:53;;;;;;;9.30;8.40;;;;;;;15.78;60.57;99768.28;1785825;77;28265;-67
2021/04/18 10:32:22;;;;;;;9.85;8.85;;;;;;;15.76;60.36;99775.20;1760506;80;21828;-71
2021/04/18 10:34:52;;;;;;;10.58;8.43;;;;;;;15.78;60.14;99775.83;1782858;79;21407;-72
2021/04/18 10:37:21;;;;;;;10.18;8.45;;;;;;;15.80;59.92;99777.79;1784966;79;21150;-72
2021/04/18 10:39:49;;;;;;;9.35;8.35;;;;;;;15.82;59.71;99782.92;1850276;76;21164;-71
2021/04/18 10:42:17;;;;;;;9.18;8.23;;;;;;;15.82;59.53;99779.75;1843957;76;21204;-71
2021/04/18 10:44:45;;;;;;;8.80;7.90;;;;;;;15.86;59.39;99781.52;1832822;77;21110;-73
2021/04/18 10:47:17;;;;;;;9.53;8.60;;;;;;;15.87;59.20;99783.97;1837651;77;21248;-72
2021/04/18 10:49:49;;;;;;;10.15;8.20;;;;;;;15.88;59.06;99782.95;1846049;77;21144;-72
2021/04/18 10:52:16;;;;;;;8.43;7.58;;;;;;;15.90;58.96;99785.44;1833808;77;21179;-72
2021/04/18 10:54:43;;;;;;;8.28;6.80;;;;;;;15.91;58.83;99785.22;1855487;76;21149;-70
2021/04/18 10:57:11;;;;;;;8.25;7.20;;;;;;;15.94;58.70;99785.87;1836631;77;21169;-70
2021/04/18 10:59:39;;;;;;;8.68;7.37;;;;;;;15.92;58.59;99784.20;1856409;76;21424;-72
2021/04/18 11:02:06;;;;;;;9.28;8.38;;;;;;;15.95;58.48;99782.96;1849751;76;21128;-73
2021/04/18 11:04:34;;;;;;;8.55;7.65;;;;;;;15.98;58.36;99781.23;1836206;77;21140;-72
2021/04/18 11:07:03;;;;;;;8.75;7.42;;;;;;;15.99;58.29;99776.69;1837554;77;21172;-70
2021/04/18 11:09:31;;;;;;;7.97;7.25;;;;;;;16.02;58.21;99773.62;1833466;76;21208;-71
2021/04/18 11:11:58;;;;;;;7.08;6.37;;;;;;;16.05;58.20;99776.72;1843887;77;21194;-72
2021/04/18 11:14:26;;;;;;;9.35;7.85;;;;;;;16.10;58.16;99782.27;1843111;77;22074;-70
2021/04/18 11:16:55;;;;;;;8.35;7.28;;;;;;;16.15;58.12;99783.52;1840818;76;21194;-70
2021/04/18 11:19:23;;;;;;;7.92;7.08;;;;;;;16.18;58.03;99780.44;1787710;79;21157;-69
2021/04/18 11:21:51;;;;;;;7.17;6.42;;;;;;;16.21;57.97;99774.69;1793911;78;21185;-71
2021/04/18 11:24:19;;;;;;;7.35;6.65;;;;;;;16.23;57.85;99777.47;1789966;78;21404;-69
2021/04/18 11:26:46;;;;;;;6.97;6.28;;;;;;;16.27;57.80;99777.88;1805675;78;21202;-68
2021/04/18 11:29:14;;;;;;;7.47;6.65;;;;;;;16.30;57.74;99777.45;1814054;78;21149;-69
2021/04/18 11:31:41;;;;;;;6.83;6.20;;;;;;;16.31;57.67;99779.94;1785058;78;21844;-68
2021/04/18 11:34:09;;;;;;;9.43;6.87;;;;;;;16.34;57.60;99780.56;1795305;78;21175;-71
2021/04/18 11:36:37;;;;;;;7.62;6.70;;;;;;;16.36;57.89;99767.77;1790300;78;21385;-74
2021/04/18 11:39:06;;;;;;;8.05;6.75;;;;;;;16.38;57.90;99780.45;1786625;78;21158;-70
2021/04/18 11:41:34;;;;;;;7.53;6.75;;;;;;;16.42;58.41;99780.38;1775943;78;21163;-70
2021/04/18 11:44:02;;;;;;;9.30;7.65;;;;;;;16.44;58.87;99776.45;1775987;78;21150;-73
2021/04/18 11:46:32;;;;;;;7.90;7.10;;;;;;;16.47;59.11;99781.91;1780252;78;21186;-73
2021/04/18 11:49:01;;;;;;;8.20;7.40;;;;;;;16.47;59.24;99776.55;1776350;78;21377;-70
2021/04/18 11:51:29;;;;;;;7.97;7.17;;;;;;;16.48;59.26;99779.56;1777436;78;21186;-69
2021/04/18 11:53:57;;;;;;;7.95;7.15;;;;;;;16.49;59.23;99779.33;1832744;75;21106;-70